• Join FlightAware (Why Join?)
  • Login
  • US Flag 
07:51AM EDT


 

Airport Tracker/Info


-or-


 

Live Flight TrackerFlight Track Log ✈ FLG3432 ✈ 14-May-2013 ✈ KALB - KMSP

Flight Track Log - Related Links

Times and Time Zones

All times are in EDT time to prevent confusion due to time zone crossing. See the FLG3432 flight status page for this flight to view local times or setup timezone preferences in your user account.

Time Position Orientation Groundspeed Altitude Reporting Facility
EDT Latitude Longitude Course Direction KTS MPH feet Rate Location/Type
06:30AM 42.7778 -73.8092 283° West 176 203 1,500  Level Boston Center
06:31AM 42.8006 -73.8069 North 174 200 2,600 2,280 Climbing Boston Center
06:32AM 42.8919 -73.8542 339° North 275 316 6,300 2,400 Climbing Boston Center
06:33AM 42.8080 -74.1686 282° West  Level FlightAware Approximate
06:33AM 42.9433 -73.9036 325° Northwest 268 308 8,900  Level Boston Center
06:34AM 42.8275 -74.2954 282° West  Level FlightAware Approximate
06:34AM 43.0133 -73.9622 329° Northwest 268 308 11,600  Level Boston Center
06:35AM 42.8481 -74.4219 283° West  Level FlightAware Approximate
06:35AM 43.0792 -74.0233 326° Northwest 294 338 13,300  Level Boston Center
06:36AM 43.1531 -74.1078 320° Northwest 311 358 15,600 2,100 Climbing Boston Center
06:37AM 43.1639 -74.2250 277° West 324 373 17,600 1,860 Climbing Boston Center
06:38AM 43.1739 -74.3675 276° West 340 391 19,400 1,800 Climbing Boston Center
06:39AM 43.1842 -74.5044 276° West 351 404 21,200 1,800 Climbing Boston Center
06:40AM 43.1961 -74.6417 277° West 362 417 23,000 1,560 Climbing Boston Center
06:41AM 43.2058 -74.7817 275° West 372 428 24,400 1,500 Climbing Boston Center
06:42AM 43.2153 -74.9272 275° West 379 436 26,000 1,440 Climbing Boston Center
06:43AM 43.2244 -75.0703 275° West 379 436 27,300 1,080 Climbing Boston Center
06:44AM 43.2319 -75.2044 274° West 385 443 28,200 1,080 Climbing Boston Center
06:45AM 43.2461 -75.3875 276° West 396 456 29,800 900 Climbing Boston Center
06:46AM 43.2564 -75.5450 275° West 407 468 30,200 1,020 Climbing Boston Center
06:47AM 43.2669 -75.6936 276° West 407 468 31,900 900 Climbing Boston Center
06:48AM 43.2769 -75.8511 275° West 407 468 32,000  Climbing Boston Center
06:49AM 43.2869 -76.0031 275° West 407 468 32,000  Level Boston Center
06:50AM 43.2944 -76.1517 274° West 407 468 32,000 420 Level Boston Center
06:53AM 43.3136 -76.5028 274° West 389 448 33,600 720 Climbing Cleveland Center
06:54AM 43.3208 -76.6508 274° West 389 448 34,600 960 Climbing Cleveland Center
06:55AM 43.3278 -76.7958 274° West 384 442 35,600 660 Climbing Cleveland Center
06:56AM 43.3367 -76.9439 275° West 384 442 36,000 180 Climbing Cleveland Center
06:57AM 43.3439 -77.1089 274° West 389 448 36,000  Level Cleveland Center
06:58AM 43.3503 -77.2514 274° West 409 471 36,000  Level Cleveland Center
06:59AM 43.3586 -77.4022 274° West 409 471 36,000  Level Cleveland Center
07:00AM 43.3644 -77.5478 273° West 398 458 36,000  Level Cleveland Center
07:01AM 43.3725 -77.6958 274° West 393 452 36,000  Level Cleveland Center
07:02AM 43.3803 -77.8442 274° West 393 452 36,000  Level Cleveland Center
07:03AM 43.3858 -77.9922 273° West 393 452 36,000  Level Cleveland Center
07:04AM 43.3911 -78.1408 273° West 393 452 36,000  Level Cleveland Center
07:05AM 43.3961 -78.2892 273° West 393 452 36,000  Level Cleveland Center
07:06AM 43.4011 -78.4433 273° West 398 458 36,000  Level Cleveland Center
07:07AM 43.4081 -78.5944 274° West 404 465 36,000  Level Cleveland Center
07:08AM 43.4144 -78.7372 274° West 398 458 36,000  Level Cleveland Center
07:09AM 43.4189 -78.8828 272° West 392 451 36,000  Level Cleveland Center
07:10AM 43.4167 -79.0333 269° West 370 426 36,000  Level Toronto Center
07:11AM 43.4167 -79.1667 270° West 370 426 36,000  Level Toronto Center
07:12AM 43.4167 -79.3167 270° West 370 426 36,000  Level Toronto Center
07:13AM 43.4333 -79.4500 280° West 360 414 36,000  Level Toronto Center
07:14AM 43.4333 -79.5833 270° West 360 414 36,000  Level Toronto Center
07:15AM 43.4333 -79.7167 270° West 360 414 36,000  Level Toronto Center
07:16AM 43.4333 -79.8667 270° West 360 414 36,000  Level Toronto Center
07:17AM 43.4667 -79.9833 292° West 340 391 36,000  Level Toronto Center
07:18AM 43.5000 -80.1000 292° West 330 380 36,000  Level Toronto Center
07:19AM 43.5333 -80.2000 295° West 330 380 36,000  Level Toronto Center
07:20AM 43.5667 -80.3167 292° West 330 380 36,000  Level Toronto Center
07:21AM 43.6000 -80.4333 292° West 330 380 36,000  Level Toronto Center
07:22AM 43.6500 -80.5833 295° West 330 380 36,000  Level Toronto Center
07:23AM 43.6833 -80.6667 299° West 330 380 36,000  Level Toronto Center
07:24AM 43.7167 -80.8167 287° West 330 380 36,000  Level Toronto Center
07:25AM 43.7333 -80.9000 285° West 330 380 36,000  Level Toronto Center
07:26AM 43.7667 -81.0333 289° West 330 380 36,000  Level Toronto Center
07:27AM 43.8000 -81.1500 292° West 330 380 36,000  Level Toronto Center
07:28AM 43.8167 -81.3000 279° West 340 391 36,000  Level Toronto Center
07:29AM 43.8333 -81.4167 281° West 340 391 36,000  Level Toronto Center
07:30AM 43.8500 -81.5333 281° West 340 391 36,000  Level Toronto Center
07:31AM 43.8667 -81.6667 280° West 340 391 36,000  Level Toronto Center
07:32AM 43.8833 -81.7833 281° West 340 391 36,000  Level Toronto Center
07:33AM 43.9167 -81.9167 289° West 340 391 36,000  Level Toronto Center
07:34AM 43.9167 -82.0667 270° West 340 391 36,000  Level Toronto Center
07:35AM 43.9333 -82.2000 280° West 340 391 36,000  Level Toronto Center
07:36AM 43.9500 -82.3167 281° West 340 391 36,000  Level Toronto Center
07:37AM 43.9667 -82.4667 279° West 350 403 36,000  Level Toronto Center
07:37AM 43.9825 -82.4817 326° Northwest 348 400 36,000  Level Minneapolis Center
07:38AM 44.0006 -82.6125 281° West 347 399 36,000  Level Minneapolis Center
07:39AM 44.0178 -82.7450 280° West 349 402 36,000  Level Minneapolis Center
07:40AM 44.0331 -82.8778 279° West 349 402 36,000  Level Minneapolis Center
07:41AM 44.0486 -83.0111 279° West 350 403 36,000  Level Minneapolis Center
07:42AM 44.0658 -83.1442 280° West 350 403 36,000  Level Minneapolis Center
07:43AM 44.0844 -83.3050 279° West 351 404 36,000  Level Minneapolis Center
07:44AM 44.1000 -83.4386 279° West 351 404 36,000  Level Minneapolis Center
07:45AM 44.1150 -83.5722 279° West 351 404 36,000  Level Minneapolis Center
07:47AM 44.1306 -83.7072 279° West 353 406 36,000  Level Minneapolis Center
07:48AM 44.1503 -83.8683 280° West 353 406 36,000  Level Minneapolis Center
07:49AM 44.1647 -84.0033 279° West 352 405 36,000  Level Minneapolis Center
07:50AM 44.1833 -84.1650 279° West 353 406 36,000  Level Minneapolis Center
07:51AM 44.2014 -84.3292 279° West 357 411 36,000  Level Minneapolis Center
07:52AM 44.2169 -84.4658 279° West 358 412 36,000  Level Minneapolis Center
07:53AM 44.2303 -84.6008 278° West 353 406 36,000  Level Minneapolis Center
07:54AM 44.2483 -84.7683 279° West 361 415 36,000  Level Minneapolis Center
07:55AM 44.2664 -84.9322 279° West 360 414 36,000  Level Minneapolis Center
07:56AM 44.2803 -85.0714 278° West 361 415 36,000  Level Minneapolis Center
07:57AM 44.2944 -85.2103 278° West 362 417 36,000  Level Minneapolis Center
07:58AM 44.3083 -85.3481 278° West 360 414 36,000  Level Minneapolis Center
07:59AM 44.3225 -85.4878 278° West 361 415 36,000  Level Minneapolis Center
08:00AM 44.3358 -85.6281 278° West 363 418 36,000  Level Minneapolis Center
08:01AM 44.3483 -85.7692 277° West 365 420 36,000  Level Minneapolis Center
08:02AM 44.3628 -85.9108 278° West 367 422 36,000  Level Minneapolis Center
08:03AM 44.3756 -86.0522 277° West 365 420 36,000  Level Minneapolis Center
08:04AM 44.3886 -86.1950 277° West 368 423 36,000  Level Minneapolis Center
08:05AM 44.4008 -86.3372 277° West 367 422 36,000  Level Minneapolis Center
08:07AM 44.4147 -86.4789 278° West 366 421 36,000  Level Minneapolis Center
08:08AM 44.4292 -86.6497 277° West 368 423 36,000  Level Minneapolis Center
08:09AM 44.4411 -86.7917 277° West 367 422 36,000  Level Minneapolis Center
08:10AM 44.4528 -86.9331 277° West 367 422 36,000  Level Minneapolis Center
08:11AM 44.4647 -87.0772 277° West 370 426 36,000  Level Minneapolis Center
08:12AM 44.4772 -87.2208 277° West 372 428 36,000  Level Minneapolis Center
08:13AM 44.4911 -87.3686 278° West 379 436 36,000  Level Minneapolis Center
08:14AM 44.5033 -87.5131 277° West 375 432 36,000  Level Minneapolis Center
08:15AM 44.5169 -87.6892 276° West 380 437 36,000  Level Minneapolis Center
08:16AM 44.5294 -87.8406 277° West 390 449 36,000  Level Minneapolis Center
08:17AM 44.5425 -88.0167 276° West 390 449 36,000  Level Minneapolis Center
08:18AM 44.5539 -88.1703 276° West 395 455 36,000  Level Minneapolis Center
08:19AM 44.5706 -88.3211 279° West 393 452 36,000  Level Minneapolis Center
08:20AM 44.5886 -88.4733 280° West 395 455 36,000  Level Minneapolis Center
08:21AM 44.6058 -88.6261 279° West 396 456 36,000  Level Minneapolis Center
08:22AM 44.6258 -88.8036 279° West 394 453 36,000 -360 Level Minneapolis Center
08:23AM 44.6433 -88.9528 279° West 392 451 35,300 -1,080 Descending Minneapolis Center
08:24AM 44.6597 -89.1017 279° West 387 445 33,800 -1,380 Descending Minneapolis Center
08:25AM 44.6736 -89.2231 279° West 384 442 32,500 -900 Descending Minneapolis Center
08:26AM 44.6914 -89.3914 279° West 377 434 32,000 -300 Descending Minneapolis Center
08:27AM 44.7072 -89.5364 279° West 375 432 32,000  Level Minneapolis Center
08:28AM 44.7222 -89.6908 278° West 391 450 32,000  Level Minneapolis Center
08:29AM 44.7422 -89.8722 279° West 401 461 32,000  Level Minneapolis Center
08:30AM 44.7619 -90.0256 280° West 400 460 32,000  Level Minneapolis Center
08:31AM 44.7825 -90.1758 281° West 393 452 32,000  Level Minneapolis Center
08:32AM 44.8025 -90.3244 281° West 389 448 32,000  Level Minneapolis Center
08:33AM 44.8225 -90.4731 281° West 387 445 32,000 -720 Level Minneapolis Center
08:34AM 44.8436 -90.6403 280° West 391 450 30,600 -1,620 Descending Minneapolis Center
08:35AM 44.8644 -90.7967 281° West 403 464 28,700 -1,800 Descending Minneapolis Center
08:36AM 44.8822 -90.9369 280° West 390 449 27,000 -1,680 Descending Minneapolis Center
08:37AM 44.8992 -91.0828 279° West 382 440 25,300 -1,740 Descending Minneapolis Center
08:39AM 44.9189 -91.2272 281° West 378 435 23,500 -1,980 Descending Minneapolis Center
08:40AM 44.9403 -91.3964 280° West 370 426 21,300 -1,800 Descending Minneapolis Center
08:41AM 44.9567 -91.5306 280° West 357 411 19,500 -1,860 Descending Minneapolis Center
08:42AM 44.9781 -91.6894 281° West 347 399 17,200 -2,040 Descending Minneapolis Center
08:43AM 44.9950 -91.8225 280° West 346 398 15,400 -1,800 Descending Minneapolis Center
08:44AM 45.0094 -91.9539 279° West 338 389 13,600 -1,800 Descending Minneapolis Center
08:45AM 45.0247 -92.0803 280° West 327 376 11,800 -1,320 Descending Minneapolis Center
08:46AM 45.0367 -92.1783 280° West 321 369 11,000 -420 Descending Minneapolis Center
08:47AM 45.0392 -92.3511 271° West 325 374 11,000 -420 Level Minneapolis Center
08:48AM 44.9989 -92.4578 242° Southwest 306 352 10,200 -900 Descending Minneapolis Center
08:49AM 44.9578 -92.5447 236° Southwest 269 310 9,200 -1,080 Descending Minneapolis Center
08:50AM 44.9153 -92.6331 236° Southwest 274 315 8,000 -1,080 Descending Minneapolis Center
08:51AM 44.8717 -92.7242 236° Southwest 281 323 7,000 -840 Descending Minneapolis Center
08:52AM 44.8286 -92.8131 236° Southwest 276 318 6,300 -960 Descending Minneapolis Center
08:53AM 44.7969 -92.9058 244° Southwest 265 305 5,100 -1,200 Descending Minneapolis Center